首页
METAR-TAF:

METAR-TAF

机场 :

Travis Air Force Base

費爾菲爾德, 加利福尼亚州, 美国

纬度: 38-16N, 经度: 121-57W, 海拔: 19米

当前天气观测

该预报发布于43分钟前的10:55 UTC
风速15节,风向西南
温度 13°C
湿度 72%
气压 1008 hPa
能見度: 16.1公里
天空无云

METAR: KSUU 191055Z AUTO 23015KT 10SM CLR 13/08 A2976 RMK AO2 SLP084 T01330077 $

时间: 04:38 (11:38 UTC)

预报

该预报发布于38分钟前的11:00 UTC
预报有效从19日的 11点(UTC)到 20日的 17点(UTC)
风速15节,风向西转西南
能见度10公里或以上
天空无云
成为
从 20日的 00点(UTC)到 20日的 01点(UTC)
风速15节,风向西南,有时为25节阵风
能见度10公里或以上
天空无云
成为
从 20日的 14点(UTC)到 20日的 15点(UTC)
风速12节,风向西南
能见度10公里或以上
天空无云

TAF: KSUU 191100Z 1911/2017 24015KT 9999 SKC QNH2976INS BECMG 2000/2001 23015G25KT 9999 SKC QNH2975INS BECMG 2014/2015 23012KT 9999 SKC QNH2980INS TX29/1923Z TN12/1912Z

超过4000个机场的气象观测和天气预报(METAR&TAF报告)。

可查询的气象台以黄色和红色小点在地图上表示。

将鼠标移到小点上方,可查看气象台名称。

然后点击查看天气观测和预报。

如需切换地图:点击带黑十字的绿色按钮放大地图;点击带横线的绿色按钮缩小地图;或者点击绿色箭头查看邻近地区的地图。


METAR-TAF: